createdAt,value
2022-08-05T00:01:36.251Z,1.98
2022-08-05T00:04:19.527Z,2.40
2022-08-05T00:06:51.642Z,2.78
2022-08-05T00:09:20.324Z,2.50
2022-08-05T00:11:49.480Z,2.10
2022-08-05T00:14:29.290Z,2.17
2022-08-05T00:17:01.668Z,2.03
2022-08-05T00:19:33.789Z,2.20
2022-08-05T00:22:13.640Z,2.05
2022-08-05T00:24:46.060Z,2.10
2022-08-05T00:27:28.373Z,1.98
2022-08-05T00:30:11.337Z,2.13
2022-08-05T00:32:40.475Z,2.08
2022-08-05T00:35:09.681Z,2.10
2022-08-05T00:37:52.622Z,2.40
2022-08-05T00:40:26.653Z,2.05
2022-08-05T00:42:58.199Z,2.42
2022-08-05T00:45:38.563Z,2.22
2022-08-05T00:48:12.662Z,2.17
2022-08-05T00:50:44.337Z,2.35
2022-08-05T00:53:44.853Z,2.60
2022-08-05T01:00:28.691Z,2.42
2022-08-05T01:06:39.081Z,2.00
2022-08-05T01:09:43.810Z,2.10
2022-08-05T01:13:05.067Z,2.30
2022-08-05T01:15:57.005Z,2.17
2022-08-05T01:18:56.457Z,2.10
2022-08-05T01:21:55.874Z,2.05
2022-08-05T01:25:05.518Z,2.30
2022-08-05T01:28:42.620Z,2.58
2022-08-05T01:31:45.350Z,2.28
2022-08-05T01:34:30.919Z,2.17
2022-08-05T01:37:24.561Z,2.60
2022-08-05T01:40:07.022Z,2.67
2022-08-05T01:42:48.051Z,2.25
2022-08-05T01:45:34.844Z,2.42
2022-08-05T01:48:25.455Z,2.55
2022-08-05T01:51:11.918Z,2.22
2022-08-05T01:53:59.111Z,2.70
2022-08-05T01:58:11.541Z,2.38
2022-08-05T01:59:52.189Z,2.13
2022-08-05T02:02:28.349Z,2.45
2022-08-05T02:05:14.896Z,2.20
2022-08-05T02:07:47.306Z,2.25
2022-08-05T02:10:37.659Z,2.20
2022-08-05T02:13:16.233Z,2.50
2022-08-05T02:15:48.342Z,2.75
2022-08-05T02:18:31.406Z,2.33
2022-08-05T02:21:14.938Z,2.63
2022-08-05T02:23:45.946Z,2.42
2022-08-05T02:26:19.720Z,2.67
2022-08-05T02:28:51.035Z,2.40
2022-08-05T02:31:24.496Z,2.15
2022-08-05T02:34:00.716Z,2.47
2022-08-05T02:36:31.854Z,2.40
2022-08-05T02:39:02.825Z,2.40
2022-08-05T02:41:43.430Z,2.50
2022-08-05T02:44:25.066Z,2.80
2022-08-05T02:47:00.300Z,2.40
2022-08-05T02:49:35.778Z,2.40
2022-08-05T02:52:13.591Z,2.78
2022-08-05T02:54:57.876Z,2.58
2022-08-05T02:58:10.337Z,2.67
2022-08-05T03:00:18.671Z,2.63
2022-08-05T03:02:49.248Z,2.65
2022-08-05T03:05:21.915Z,2.80
2022-08-05T03:08:10.834Z,2.58
2022-08-05T03:10:44.088Z,2.70
2022-08-05T03:13:52.019Z,3.17
2022-08-05T03:16:20.950Z,2.63
2022-08-05T03:18:49.477Z,2.70
2022-08-05T03:21:19.038Z,2.70
2022-08-05T03:23:50.016Z,2.40
2022-08-05T03:26:31.756Z,2.42
2022-08-05T03:29:00.807Z,2.75
2022-08-05T03:31:56.900Z,2.40
2022-08-05T03:34:19.077Z,2.55
2022-08-05T03:36:48.589Z,2.78
2022-08-05T03:39:27.036Z,2.80
2022-08-05T03:41:58.710Z,2.83
2022-08-05T03:44:29.053Z,2.60
2022-08-05T03:46:57.415Z,2.50
2022-08-05T03:49:31.167Z,2.50
2022-08-05T03:52:38.146Z,2.30
2022-08-05T03:56:10.053Z,2.78
2022-08-05T03:58:06.330Z,2.70
2022-08-05T04:00:34.692Z,2.75
2022-08-05T04:03:07.116Z,2.60
2022-08-05T04:05:45.473Z,2.65
2022-08-05T04:08:30.089Z,3.00
2022-08-05T04:11:07.428Z,3.25
2022-08-05T04:13:50.507Z,3.50
2022-08-05T04:16:25.346Z,3.25
2022-08-05T04:19:00.471Z,2.92
2022-08-05T04:22:09.577Z,3.20
2022-08-05T04:24:19.645Z,3.00
2022-08-05T04:26:50.781Z,3.60
2022-08-05T04:29:19.896Z,4.10
2022-08-05T04:31:48.322Z,3.75
2022-08-05T04:34:19.379Z,2.70
2022-08-05T04:37:01.499Z,3.40
2022-08-05T04:39:35.277Z,3.33
2022-08-05T04:42:03.974Z,2.60
2022-08-05T04:44:32.061Z,2.90
2022-08-05T04:47:20.116Z,2.58
2022-08-05T04:50:01.354Z,3.00
2022-08-05T04:52:32.662Z,2.70
2022-08-05T04:55:14.940Z,2.47
2022-08-05T04:57:51.532Z,2.65
2022-08-05T05:00:23.629Z,3.13
2022-08-05T05:02:54.298Z,2.60
2022-08-05T05:05:28.619Z,2.47
2022-08-05T05:08:01.620Z,2.70
2022-08-05T05:10:33.082Z,2.78
2022-08-05T05:13:01.712Z,2.50
2022-08-05T05:15:56.351Z,2.80
2022-08-05T05:18:31.214Z,2.67
2022-08-05T05:21:03.466Z,2.70
2022-08-05T05:24:01.863Z,2.45
2022-08-05T05:26:28.407Z,2.55
2022-08-05T05:29:01.105Z,2.50
2022-08-05T05:34:01.871Z,2.70
2022-08-05T05:36:31.707Z,2.50
2022-08-05T05:39:03.822Z,2.83
2022-08-05T05:41:40.841Z,2.50
2022-08-05T05:44:36.923Z,2.80
2022-08-05T05:47:04.621Z,2.30
2022-08-05T05:49:47.547Z,2.50
2022-08-05T05:52:28.627Z,2.60
2022-08-05T05:55:00.998Z,2.83
2022-08-05T05:57:42.606Z,2.40
2022-08-05T06:00:14.053Z,2.40
2022-08-05T06:02:42.910Z,2.60
2022-08-05T06:05:16.874Z,3.00
2022-08-05T06:08:01.245Z,3.00
2022-08-05T06:10:36.482Z,2.88
2022-08-05T06:13:06.987Z,2.88
2022-08-05T06:16:31.354Z,2.88
2022-08-05T06:18:31.638Z,2.88
2022-08-05T06:21:00.468Z,3.25
2022-08-05T06:23:43.836Z,2.75
2022-08-05T06:26:21.653Z,3.20
2022-08-05T06:28:54.405Z,2.80
2022-08-05T06:31:22.666Z,2.58
2022-08-05T06:34:07.590Z,2.92
2022-08-05T06:36:57.050Z,2.70
2022-08-05T06:39:27.003Z,2.72
2022-08-05T06:41:56.369Z,3.00
2022-08-05T06:44:28.397Z,2.53
2022-08-05T06:46:57.515Z,2.20
2022-08-05T06:50:00.759Z,2.85
2022-08-05T06:52:37.883Z,3.13
2022-08-05T06:55:02.813Z,2.60
2022-08-05T06:58:02.630Z,2.80
2022-08-05T07:00:25.750Z,2.53
2022-08-05T07:02:54.530Z,2.58
2022-08-05T07:05:31.922Z,2.70
2022-08-05T07:08:10.606Z,3.10
2022-08-05T07:10:52.879Z,2.33
2022-08-05T07:13:57.913Z,2.35
2022-08-05T07:18:00.160Z,2.63
2022-08-05T07:20:31.603Z,2.58
2022-08-05T07:22:35.215Z,2.70
2022-08-05T07:25:23.119Z,2.08
2022-08-05T07:27:58.445Z,2.42
2022-08-05T07:30:33.324Z,2.30
2022-08-05T07:33:09.381Z,2.45
2022-08-05T07:36:03.088Z,2.15
2022-08-05T07:38:33.210Z,2.13
2022-08-05T07:42:06.798Z,2.08
2022-08-05T07:43:52.712Z,2.15
2022-08-05T07:46:28.130Z,2.05
2022-08-05T07:49:01.711Z,1.75
2022-08-05T07:51:37.252Z,2.20
2022-08-05T07:54:11.530Z,1.75
2022-08-05T07:57:01.827Z,1.73
2022-08-05T07:59:30.988Z,2.40
2022-08-05T08:02:15.502Z,1.73
2022-08-05T08:04:48.287Z,2.00
2022-08-05T08:07:17.908Z,1.70
2022-08-05T08:09:46.491Z,1.95
2022-08-05T08:12:36.994Z,1.70
2022-08-05T08:15:14.292Z,1.70
2022-08-05T08:17:50.679Z,1.60
2022-08-05T08:24:01.931Z,2.03
2022-08-05T08:26:02.650Z,1.83
2022-08-05T08:28:55.178Z,1.77
2022-08-05T08:31:23.963Z,1.73
2022-08-05T08:33:55.047Z,1.52
2022-08-05T08:36:38.640Z,1.70
2022-08-05T08:39:15.679Z,1.98
2022-08-05T08:41:51.648Z,1.88
2022-08-05T08:45:18.819Z,1.90
2022-08-05T08:48:06.404Z,1.77
2022-08-05T08:50:31.603Z,1.92
2022-08-05T08:53:07.973Z,2.10
2022-08-05T08:56:04.591Z,1.92
2022-08-05T08:58:37.015Z,1.80
2022-08-05T09:01:08.668Z,1.67
2022-08-05T09:03:45.653Z,1.98
2022-08-05T09:06:17.178Z,1.80
2022-08-05T09:08:49.760Z,1.80
2022-08-05T09:11:17.897Z,1.60
2022-08-05T09:14:54.131Z,1.52
2022-08-05T09:16:55.018Z,1.80
2022-08-05T09:19:27.655Z,1.80
2022-08-05T09:22:23.144Z,1.88
2022-08-05T09:25:02.017Z,1.75
2022-08-05T09:28:04.600Z,1.73
2022-08-05T09:30:30.342Z,1.73
2022-08-05T09:33:04.732Z,2.03
2022-08-05T09:35:33.133Z,1.75
2022-08-05T09:38:12.984Z,1.63
2022-08-05T09:40:52.122Z,1.60
2022-08-05T09:43:41.633Z,1.85
2022-08-05T09:46:27.613Z,1.67
2022-08-05T09:49:06.816Z,1.67
2022-08-05T09:51:38.543Z,1.77
2022-08-05T09:54:10.168Z,1.48
2022-08-05T09:56:40.829Z,1.52
2022-08-05T09:59:19.750Z,1.60
2022-08-05T10:01:48.342Z,1.45
2022-08-05T10:04:38.238Z,1.20
2022-08-05T10:07:20.405Z,1.08
2022-08-05T10:10:14.079Z,1.10
2022-08-05T10:12:50.471Z,1.23
2022-08-05T10:15:23.997Z,1.08
2022-08-05T10:18:12.460Z,1.27
2022-08-05T10:20:44.189Z,0.80
2022-08-05T10:23:33.961Z,1.95
2022-08-05T10:26:52.316Z,0.80
2022-08-05T10:28:58.502Z,0.90
2022-08-05T10:32:54.069Z,1.00
2022-08-05T10:34:17.008Z,1.05
2022-08-05T10:36:45.772Z,0.82
2022-08-05T10:39:24.782Z,1.00
2022-08-05T10:42:14.508Z,1.00
2022-08-05T10:44:50.314Z,0.80
2022-08-05T10:47:26.921Z,0.90
2022-08-05T10:50:32.088Z,1.20
2022-08-05T10:52:58.633Z,0.90
2022-08-05T10:55:32.883Z,0.95
2022-08-05T10:58:20.610Z,0.80
2022-08-05T11:00:55.406Z,1.13
2022-08-05T11:03:31.314Z,0.80
2022-08-05T11:06:15.692Z,1.00
2022-08-05T11:09:13.111Z,0.93
2022-08-05T11:11:53.478Z,1.20
2022-08-05T11:17:59.923Z,0.90
2022-08-05T11:20:44.589Z,0.90
2022-08-05T11:24:04.618Z,1.10
2022-08-05T11:26:33.530Z,0.98
2022-08-05T11:29:12.700Z,0.90
2022-08-05T11:31:58.419Z,1.00
2022-08-05T11:34:50.832Z,1.00
2022-08-05T11:38:28.420Z,1.00
2022-08-05T11:41:03.372Z,1.00
2022-08-05T11:44:06.062Z,1.05
2022-08-05T11:46:35.517Z,0.90
2022-08-05T11:49:05.279Z,1.00
2022-08-05T11:51:44.015Z,1.00
2022-08-05T11:54:34.020Z,0.90
2022-08-05T11:57:08.142Z,0.82
2022-08-05T11:59:52.979Z,1.20
2022-08-05T12:02:31.275Z,0.90
2022-08-05T12:05:07.540Z,1.00
2022-08-05T12:08:07.567Z,1.05
2022-08-05T12:10:46.005Z,1.05
2022-08-05T12:13:27.888Z,0.85
2022-08-05T12:16:14.634Z,0.80
2022-08-05T12:18:49.578Z,0.80
2022-08-05T12:21:24.015Z,0.93
2022-08-05T12:24:05.144Z,0.90
2022-08-05T12:26:35.423Z,1.00
2022-08-05T12:29:05.489Z,1.20
2022-08-05T12:31:42.371Z,1.20
2022-08-05T12:34:21.290Z,1.15
2022-08-05T12:36:52.294Z,1.30
2022-08-05T12:39:23.751Z,1.23
2022-08-05T12:42:03.467Z,0.90
2022-08-05T12:44:34.100Z,1.30
2022-08-05T12:47:03.572Z,1.10
2022-08-05T12:50:04.097Z,0.88
2022-08-05T12:52:41.923Z,0.95
2022-08-05T12:55:26.794Z,0.93
2022-08-05T12:58:48.356Z,2.10
2022-08-05T13:02:01.594Z,1.08
2022-08-05T13:03:43.108Z,0.93
2022-08-05T13:06:16.608Z,1.10
2022-08-05T13:08:51.427Z,1.08
2022-08-05T13:12:01.018Z,1.10
2022-08-05T13:14:14.874Z,0.90
2022-08-05T13:16:51.758Z,1.10
2022-08-05T13:19:22.772Z,0.90
2022-08-05T13:21:56.761Z,1.20
2022-08-05T13:24:36.330Z,1.27
2022-08-05T13:27:38.213Z,1.20
2022-08-05T13:30:33.920Z,1.15
2022-08-05T13:33:00.952Z,1.20
2022-08-05T13:35:31.238Z,1.23
2022-08-05T13:38:20.490Z,1.17
2022-08-05T13:41:00.074Z,1.17
2022-08-05T13:43:44.822Z,1.15
2022-08-05T13:46:35.709Z,1.17
2022-08-05T13:49:10.321Z,1.10
2022-08-05T13:51:41.474Z,1.20
2022-08-05T13:54:21.040Z,1.30
2022-08-05T13:56:53.558Z,1.23
2022-08-05T13:59:27.547Z,1.25
2022-08-05T14:02:00.879Z,1.25
2022-08-05T14:04:51.561Z,1.50
2022-08-05T14:07:25.802Z,1.10
2022-08-05T14:10:12.577Z,1.35
2022-08-05T14:12:48.595Z,1.40
2022-08-05T14:16:08.067Z,1.30
2022-08-05T14:18:17.350Z,1.30
2022-08-05T14:20:48.117Z,1.05
2022-08-05T14:23:25.306Z,1.10
2022-08-05T14:25:58.100Z,1.40
2022-08-05T14:28:28.198Z,1.35
2022-08-05T14:30:58.334Z,1.13
2022-08-05T14:33:56.507Z,1.20
2022-08-05T14:36:21.387Z,1.02
2022-08-05T14:38:50.277Z,1.25
2022-08-05T14:41:18.912Z,1.60
2022-08-05T14:44:02.503Z,1.20
2022-08-05T14:49:07.559Z,1.40
2022-08-05T14:51:37.783Z,1.40
2022-08-05T14:54:28.002Z,1.33
2022-08-05T14:56:55.010Z,1.20
2022-08-05T14:59:23.272Z,1.25
2022-08-05T15:01:53.789Z,1.27
2022-08-05T15:04:22.774Z,1.63
2022-08-05T15:06:51.767Z,1.13
2022-08-05T15:09:52.725Z,1.08
2022-08-05T15:12:16.396Z,1.13
2022-08-05T15:14:49.889Z,1.00
2022-08-05T15:17:47.439Z,0.93
2022-08-05T15:20:18.436Z,1.00
2022-08-05T15:22:54.249Z,1.20
2022-08-05T15:25:51.441Z,1.30
2022-08-05T15:28:16.238Z,1.20
2022-08-05T15:30:45.803Z,1.20
2022-08-05T15:33:56.719Z,1.33
2022-08-05T15:36:05.207Z,1.55
2022-08-05T15:38:40.975Z,1.48
2022-08-05T15:43:54.812Z,1.30
2022-08-05T15:46:25.010Z,1.20
2022-08-05T15:49:00.748Z,1.30
2022-08-05T15:52:09.933Z,1.50
2022-08-05T15:54:35.072Z,0.98
2022-08-05T15:57:07.587Z,1.10
2022-08-05T15:59:44.438Z,2.10
2022-08-05T16:02:14.897Z,1.13
2022-08-05T16:04:49.891Z,1.60
2022-08-05T16:07:18.176Z,1.05
2022-08-05T16:09:46.222Z,1.60
2022-08-05T16:12:14.316Z,1.10
2022-08-05T16:14:43.446Z,1.33
2022-08-05T16:17:14.251Z,1.30
2022-08-05T16:20:11.046Z,1.15
2022-08-05T16:22:34.102Z,1.38
2022-08-05T16:25:07.873Z,1.20
2022-08-05T16:27:47.353Z,1.42
2022-08-05T16:30:29.150Z,1.20
2022-08-05T16:33:00.614Z,1.45
2022-08-05T16:35:30.819Z,1.40
2022-08-05T16:38:15.487Z,1.35
2022-08-05T16:40:55.303Z,1.30
2022-08-05T16:43:28.976Z,1.25
2022-08-05T16:46:04.377Z,1.33
2022-08-05T16:48:38.530Z,1.50
2022-08-05T16:51:10.834Z,1.48
2022-08-05T16:54:06.229Z,1.42
2022-08-05T16:56:34.595Z,1.42
2022-08-05T16:59:07.721Z,1.45
2022-08-05T17:01:53.862Z,1.60
2022-08-05T17:04:26.345Z,1.70
2022-08-05T17:06:55.597Z,1.83
2022-08-05T17:09:26.464Z,1.90
2022-08-05T17:11:59.747Z,1.60
2022-08-05T17:14:36.901Z,1.42
2022-08-05T17:17:14.992Z,1.63
2022-08-05T17:19:46.166Z,1.42
2022-08-05T17:22:24.446Z,1.30
2022-08-05T17:24:57.981Z,1.40
2022-08-05T17:27:33.801Z,1.50
2022-08-05T17:30:03.183Z,1.83
2022-08-05T17:32:32.163Z,1.90
2022-08-05T17:35:02.871Z,1.90
2022-08-05T17:37:40.388Z,1.65
2022-08-05T17:40:15.133Z,1.73
2022-08-05T17:42:50.768Z,1.70
2022-08-05T17:45:21.774Z,1.70
2022-08-05T17:47:56.028Z,1.65
2022-08-05T17:50:28.910Z,1.80
2022-08-05T17:52:59.943Z,2.03
2022-08-05T17:55:37.199Z,1.98
2022-08-05T17:58:12.469Z,1.65
2022-08-05T18:00:44.981Z,1.75
2022-08-05T18:06:09.964Z,1.80
2022-08-05T18:08:44.216Z,1.80
2022-08-05T18:11:23.794Z,2.30
2022-08-05T18:14:03.481Z,1.80
2022-08-05T18:16:32.788Z,2.05
2022-08-05T18:19:00.831Z,1.90
2022-08-05T18:22:08.474Z,2.22
2022-08-05T18:24:17.392Z,1.90
2022-08-05T18:26:47.198Z,2.35
2022-08-05T18:29:16.868Z,2.10
2022-08-05T18:31:45.121Z,2.05
2022-08-05T18:34:14.190Z,1.95
2022-08-05T18:36:43.671Z,1.90
2022-08-05T18:39:41.962Z,2.30
2022-08-05T18:42:04.998Z,2.25
2022-08-05T18:47:26.867Z,2.08
2022-08-05T18:50:15.585Z,2.58
2022-08-05T18:52:51.029Z,2.53
2022-08-05T18:55:21.467Z,2.70
2022-08-05T18:57:54.122Z,2.45
2022-08-05T19:00:31.286Z,2.13
2022-08-05T19:03:03.405Z,2.22
2022-08-05T19:06:12.843Z,2.67
2022-08-05T19:08:21.755Z,2.28
2022-08-05T19:10:52.089Z,2.38
2022-08-05T19:13:25.861Z,2.10
2022-08-05T19:16:03.563Z,2.53
2022-08-05T19:18:32.919Z,2.60
2022-08-05T19:21:01.489Z,2.83
2022-08-05T19:24:05.722Z,3.10
2022-08-05T19:26:22.391Z,2.75
2022-08-05T19:28:51.860Z,2.75
2022-08-05T19:31:22.945Z,2.38
2022-08-05T19:33:56.939Z,2.45
2022-08-05T19:36:26.079Z,2.47
2022-08-05T19:39:01.027Z,2.85
2022-08-05T19:41:58.434Z,3.20
2022-08-05T19:44:19.923Z,3.08
2022-08-05T19:46:50.182Z,2.92
2022-08-05T19:49:18.617Z,3.03
2022-08-05T19:52:04.525Z,2.85
2022-08-05T19:54:35.569Z,3.50
2022-08-05T19:57:06.813Z,3.38
2022-08-05T19:59:59.520Z,3.65
2022-08-05T20:02:32.146Z,3.50
2022-08-05T20:05:04.648Z,3.88
2022-08-05T20:07:46.514Z,3.50
2022-08-05T20:10:16.754Z,4.53
2022-08-05T20:12:47.983Z,4.70
2022-08-05T20:15:47.843Z,4.55
2022-08-05T20:18:09.701Z,4.53
2022-08-05T20:20:39.411Z,5.03
2022-08-05T20:23:10.043Z,5.13
2022-08-05T20:25:41.873Z,5.38
2022-08-05T20:28:13.771Z,5.13
2022-08-05T20:30:44.207Z,5.68
2022-08-05T20:33:13.125Z,5.70
2022-08-05T20:35:45.315Z,5.85
2022-08-05T20:38:20.253Z,5.75
2022-08-05T20:40:56.390Z,6.22
2022-08-05T20:43:58.485Z,6.28
2022-08-05T20:46:31.305Z,6.65
2022-08-05T20:49:02.477Z,6.45
2022-08-05T20:51:34.299Z,6.88
2022-08-05T20:54:02.602Z,7.20
2022-08-05T20:56:34.257Z,7.15
2022-08-05T20:59:14.210Z,6.80
2022-08-05T21:01:51.653Z,6.40
2022-08-05T21:04:19.908Z,7.03
2022-08-05T21:06:48.524Z,7.53
2022-08-05T21:09:18.938Z,11.15
2022-08-05T21:12:10.654Z,5.28
2022-08-05T21:14:35.844Z,0.13
2022-08-05T21:17:06.533Z,0.47
2022-08-05T21:19:47.502Z,0.50
2022-08-05T21:22:18.328Z,0.10
2022-08-05T21:24:57.676Z,0.25
2022-08-05T21:27:27.454Z,0.13
2022-08-05T21:29:56.434Z,0.10
2022-08-05T21:32:27.553Z,0.45
2022-08-05T21:35:17.676Z,0.10
2022-08-05T21:37:47.228Z,0.75
2022-08-05T21:40:21.109Z,0.43
2022-08-05T21:42:51.662Z,0.55
2022-08-05T21:45:24.952Z,0.13
2022-08-05T21:48:10.458Z,0.00
2022-08-05T21:50:41.731Z,0.45
2022-08-05T21:53:27.538Z,0.10
2022-08-05T21:56:05.585Z,0.20
2022-08-05T21:58:42.054Z,0.25
2022-08-05T22:01:11.091Z,0.30
2022-08-05T22:03:53.857Z,1.15
2022-08-05T22:06:35.159Z,0.40
2022-08-05T22:09:13.369Z,0.57
2022-08-05T22:11:47.129Z,0.50
2022-08-05T22:14:32.931Z,0.63
2022-08-05T22:17:03.453Z,0.20
2022-08-05T22:19:57.413Z,0.45
2022-08-05T22:22:28.854Z,0.45
2022-08-05T22:25:23.950Z,0.28
2022-08-05T22:28:11.185Z,0.00
2022-08-05T22:30:56.556Z,0.38
2022-08-05T22:33:58.464Z,1.25
2022-08-05T22:36:16.919Z,0.00
2022-08-05T22:38:51.744Z,0.13
2022-08-05T22:41:26.353Z,0.00
2022-08-05T22:44:11.831Z,0.43
2022-08-05T22:46:41.507Z,0.20
2022-08-05T22:49:23.530Z,0.45
2022-08-05T22:52:05.842Z,0.28
2022-08-05T22:54:36.499Z,0.35
2022-08-05T22:57:05.676Z,0.20
2022-08-05T22:59:43.734Z,0.30
2022-08-05T23:02:29.033Z,0.00
2022-08-05T23:05:05.125Z,0.45
2022-08-05T23:07:49.479Z,0.40
2022-08-05T23:10:27.973Z,0.68
2022-08-05T23:13:12.677Z,0.28
2022-08-05T23:15:52.913Z,0.10
2022-08-05T23:18:22.898Z,0.50
2022-08-05T23:20:51.175Z,0.50
2022-08-05T23:23:21.525Z,0.60
2022-08-05T23:25:55.185Z,0.10
2022-08-05T23:28:27.703Z,0.45
2022-08-05T23:31:06.967Z,0.47
2022-08-05T23:36:38.713Z,0.68
2022-08-05T23:39:17.174Z,0.55
2022-08-05T23:45:27.552Z,0.23
2022-08-05T23:48:04.448Z,0.38
2022-08-05T23:50:32.670Z,1.33
2022-08-05T23:53:00.766Z,0.20
2022-08-05T23:55:31.235Z,0.00
2022-08-05T23:57:59.599Z,0.08
